Date,TemperatureHighF,TemperatureAvgF,TemperatureLowF,DewpointHighF,DewpointAvgF,DewpointLowF,HumidityHigh,HumidityAvg,HumidityLow,PressureMaxIn,PressureMinIn,WindSpeedMaxMPH,WindSpeedAvgMPH,GustSpeedMaxMPH,PrecipitationSumIn
2013-9-1,90,76,64,67,52,47,100,47,25,29.87,29.76,18,1,18,0.00
2013-9-2,75,69,65,66,61,56,86,76,61,29.89,29.80,14,0,14,0.33
2013-9-3,86,72,62,60,55,47,82,58,31,29.93,29.82,18,1,18,0.00
2013-9-4,86,72,61,58,53,45,76,54,26,29.97,29.82,21,1,21,0.00
2013-9-5,86,72,60,57,52,45,75,54,26,29.95,29.82,21,1,21,0.00
2013-9-6,90,73,57,54,50,41,77,49,19,29.93,29.75,24,1,24,0.00
2013-9-7,97,78,60,55,51,46,71,43,19,29.83,29.71,19,1,19,0.00
2013-9-8,97,80,62,55,52,44,67,40,18,29.79,29.64,25,2,25,0.00
2013-9-9,96,79,64,58,52,49,63,42,22,29.73,29.57,17,0,17,0.00
2013-9-10,88,74,64,59,54,49,74,52,33,29.80,29.61,25,1,25,0.00
2013-9-11,82,69,60,58,56,54,80,64,42,29.92,29.79,16,1,16,0.00
2013-9-12,86,73,61,61,57,54,82,60,37,29.92,29.76,17,0,17,0.00
2013-9-13,91,73,61,62,56,52,79,58,35,29.83,29.62,19,0,19,0.00
2013-9-14,88,71,60,58,54,50,74,56,35,29.74,29.60,18,0,18,0.00
2013-9-15,87,70,57,56,52,46,76,56,27,29.79,29.67,18,1,18,0.00
2013-9-16,88,71,59,60,54,51,79,58,32,29.84,29.66,15,0,15,0.00
2013-9-17,83,68,58,53,51,46,76,56,33,29.81,29.72,21,1,21,0.00
2013-9-18,86,69,57,53,47,43,69,49,25,29.87,29.72,30,2,30,0.00
2013-9-19,91,71,55,50,46,42,67,44,21,29.82,29.66,20,0,20,0.00
2013-9-20,82,68,57,57,49,42,74,52,34,29.80,29.68,42,2,42,0.00
2013-9-21,69,61,56,56,54,51,87,77,57,29.85,29.75,32,0,32,0.38
2013-9-22,75,62,51,54,50,46,86,68,44,29.96,29.84,25,1,25,0.00
2013-9-23,83,66,52,57,52,47,83,63,38,29.99,29.85,26,1,26,0.00
2013-9-24,80,67,60,55,52,47,75,60,35,29.94,29.77,24,2,24,0.00
2013-9-25,75,62,53,50,44,35,79,55,29,29.87,29.74,30,1,30,0.00
2013-9-26,76,62,51,41,39,37,63,45,27,29.92,29.76,39,4,42,0.00
2013-9-27,80,62,49,42,39,34,64,45,22,30.07,29.92,23,1,23,0.00
2013-9-28,84,66,50,46,41,36,72,45,19,30.07,29.91,16,0,16,0.00
2013-9-29,78,66,57,56,52,46,77,62,47,30.08,29.95,21,1,21,0.00
2013-9-30,80,68,60,59,56,54,79,68,48,30.03,29.87,21,0,21,0.00